sensor_id;sensor_type;location;lat;lon;timestamp;P1;durP1;ratioP1;P2;durP2;ratioP2
4434;SDS011;46552;52.150;8.428;2023-07-30T00:02:18;10.50;;;7.90;;
4434;SDS011;46552;52.150;8.428;2023-07-30T00:04:47;15.97;;;9.17;;
4434;SDS011;46552;52.150;8.428;2023-07-30T00:07:14;16.50;;;9.07;;
4434;SDS011;46552;52.150;8.428;2023-07-30T00:09:41;18.07;;;8.93;;
4434;SDS011;46552;52.150;8.428;2023-07-30T00:12:08;19.80;;;9.97;;
4434;SDS011;46552;52.150;8.428;2023-07-30T00:14:38;11.60;;;7.33;;
4434;SDS011;46552;52.150;8.428;2023-07-30T00:17:05;11.30;;;8.33;;
4434;SDS011;46552;52.150;8.428;2023-07-30T00:19:32;13.83;;;9.00;;
4434;SDS011;46552;52.150;8.428;2023-07-30T00:22:00;14.27;;;9.83;;
4434;SDS011;46552;52.150;8.428;2023-07-30T00:24:28;13.67;;;9.20;;
4434;SDS011;46552;52.150;8.428;2023-07-30T00:26:55;16.20;;;8.00;;
4434;SDS011;46552;52.150;8.428;2023-07-30T00:29:22;12.97;;;8.63;;
4434;SDS011;46552;52.150;8.428;2023-07-30T00:31:51;14.13;;;9.03;;
4434;SDS011;46552;52.150;8.428;2023-07-30T00:34:18;18.77;;;9.07;;
4434;SDS011;46552;52.150;8.428;2023-07-30T00:36:45;15.93;;;7.60;;
4434;SDS011;46552;52.150;8.428;2023-07-30T00:39:13;11.63;;;7.10;;
4434;SDS011;46552;52.150;8.428;2023-07-30T00:41:41;28.60;;;8.23;;
4434;SDS011;46552;52.150;8.428;2023-07-30T00:44:08;11.03;;;5.97;;
4434;SDS011;46552;52.150;8.428;2023-07-30T00:46:35;19.90;;;6.00;;
4434;SDS011;46552;52.150;8.428;2023-07-30T00:49:03;11.37;;;5.60;;
4434;SDS011;46552;52.150;8.428;2023-07-30T00:51:32;14.43;;;6.17;;
4434;SDS011;46552;52.150;8.428;2023-07-30T00:54:00;18.20;;;6.20;;
4434;SDS011;46552;52.150;8.428;2023-07-30T00:56:27;9.60;;;6.13;;
4434;SDS011;46552;52.150;8.428;2023-07-30T00:58:54;9.30;;;5.57;;
4434;SDS011;46552;52.150;8.428;2023-07-30T01:01:22;14.00;;;6.43;;
4434;SDS011;46552;52.150;8.428;2023-07-30T01:03:50;10.30;;;5.63;;
4434;SDS011;46552;52.150;8.428;2023-07-30T01:06:19;11.40;;;6.20;;
4434;SDS011;46552;52.150;8.428;2023-07-30T01:08:47;9.80;;;4.90;;
4434;SDS011;46552;52.150;8.428;2023-07-30T01:11:15;11.70;;;6.10;;
4434;SDS011;46552;52.150;8.428;2023-07-30T01:13:43;8.60;;;5.43;;
4434;SDS011;46552;52.150;8.428;2023-07-30T01:16:11;13.00;;;6.00;;
4434;SDS011;46552;52.150;8.428;2023-07-30T01:18:38;10.37;;;4.60;;
4434;SDS011;46552;52.150;8.428;2023-07-30T01:21:07;12.50;;;5.80;;
4434;SDS011;46552;52.150;8.428;2023-07-30T01:23:34;11.67;;;6.00;;
4434;SDS011;46552;52.150;8.428;2023-07-30T01:26:03;14.47;;;5.80;;
4434;SDS011;46552;52.150;8.428;2023-07-30T01:28:35;12.13;;;6.10;;
4434;SDS011;46552;52.150;8.428;2023-07-30T01:31:05;11.97;;;6.80;;
4434;SDS011;46552;52.150;8.428;2023-07-30T01:33:35;15.60;;;6.97;;
4434;SDS011;46552;52.150;8.428;2023-07-30T01:36:03;14.80;;;7.10;;
4434;SDS011;46552;52.150;8.428;2023-07-30T01:38:33;12.50;;;8.23;;
4434;SDS011;46552;52.150;8.428;2023-07-30T01:41:01;14.13;;;7.47;;
4434;SDS011;46552;52.150;8.428;2023-07-30T01:43:28;10.60;;;8.00;;
4434;SDS011;46552;52.150;8.428;2023-07-30T01:45:56;12.80;;;8.00;;
4434;SDS011;46552;52.150;8.428;2023-07-30T01:48:23;14.90;;;9.23;;
4434;SDS011;46552;52.150;8.428;2023-07-30T01:50:50;18.60;;;8.30;;
4434;SDS011;46552;52.150;8.428;2023-07-30T01:53:17;16.43;;;8.90;;
4434;SDS011;46552;52.150;8.428;2023-07-30T01:55:46;19.73;;;9.97;;
4434;SDS011;46552;52.150;8.428;2023-07-30T01:58:13;17.03;;;10.13;;
4434;SDS011;46552;52.150;8.428;2023-07-30T02:00:41;18.20;;;10.47;;
4434;SDS011;46552;52.150;8.428;2023-07-30T02:03:08;19.73;;;9.97;;
4434;SDS011;46552;52.150;8.428;2023-07-30T02:05:35;11.53;;;9.00;;
4434;SDS011;46552;52.150;8.428;2023-07-30T02:08:03;20.07;;;9.83;;
4434;SDS011;46552;52.150;8.428;2023-07-30T02:10:30;18.70;;;8.97;;
4434;SDS011;46552;52.150;8.428;2023-07-30T02:12:59;17.80;;;9.20;;
4434;SDS011;46552;52.150;8.428;2023-07-30T02:15:26;20.63;;;9.27;;
4434;SDS011;46552;52.150;8.428;2023-07-30T02:17:53;15.40;;;9.40;;
4434;SDS011;46552;52.150;8.428;2023-07-30T02:20:21;15.07;;;9.33;;
4434;SDS011;46552;52.150;8.428;2023-07-30T02:22:48;12.93;;;7.30;;
4434;SDS011;46552;52.150;8.428;2023-07-30T02:25:16;14.60;;;9.50;;
4434;SDS011;46552;52.150;8.428;2023-07-30T02:27:44;15.27;;;9.90;;
4434;SDS011;46552;52.150;8.428;2023-07-30T02:30:13;17.97;;;9.57;;
4434;SDS011;46552;52.150;8.428;2023-07-30T02:32:41;18.93;;;9.47;;
4434;SDS011;46552;52.150;8.428;2023-07-30T02:35:08;16.20;;;9.13;;
4434;SDS011;46552;52.150;8.428;2023-07-30T02:37:35;13.60;;;8.70;;
4434;SDS011;46552;52.150;8.428;2023-07-30T02:40:03;18.53;;;7.57;;
4434;SDS011;46552;52.150;8.428;2023-07-30T02:42:31;16.43;;;8.20;;
4434;SDS011;46552;52.150;8.428;2023-07-30T02:44:58;16.83;;;7.33;;
4434;SDS011;46552;52.150;8.428;2023-07-30T02:47:26;12.13;;;7.80;;
4434;SDS011;46552;52.150;8.428;2023-07-30T02:49:54;15.47;;;7.27;;
4434;SDS011;46552;52.150;8.428;2023-07-30T02:52:21;13.70;;;7.30;;
4434;SDS011;46552;52.150;8.428;2023-07-30T02:54:48;16.37;;;8.10;;
4434;SDS011;46552;52.150;8.428;2023-07-30T02:57:15;13.17;;;8.27;;
4434;SDS011;46552;52.150;8.428;2023-07-30T02:59:42;14.93;;;8.20;;
4434;SDS011;46552;52.150;8.428;2023-07-30T03:02:09;23.40;;;9.20;;
4434;SDS011;46552;52.150;8.428;2023-07-30T03:04:38;14.00;;;8.70;;
4434;SDS011;46552;52.150;8.428;2023-07-30T03:07:08;16.73;;;9.67;;
4434;SDS011;46552;52.150;8.428;2023-07-30T03:09:36;16.20;;;9.23;;
4434;SDS011;46552;52.150;8.428;2023-07-30T03:12:03;14.50;;;9.37;;
4434;SDS011;46552;52.150;8.428;2023-07-30T03:14:31;16.03;;;9.50;;
4434;SDS011;46552;52.150;8.428;2023-07-30T03:16:58;31.63;;;13.30;;
4434;SDS011;46552;52.150;8.428;2023-07-30T03:19:26;27.80;;;15.03;;
4434;SDS011;46552;52.150;8.428;2023-07-30T03:21:54;21.27;;;12.57;;
4434;SDS011;46552;52.150;8.428;2023-07-30T03:24:22;27.57;;;16.70;;
4434;SDS011;46552;52.150;8.428;2023-07-30T03:26:49;30.30;;;15.90;;
4434;SDS011;46552;52.150;8.428;2023-07-30T03:29:16;30.77;;;15.03;;
4434;SDS011;46552;52.150;8.428;2023-07-30T03:31:44;32.30;;;15.90;;
4434;SDS011;46552;52.150;8.428;2023-07-30T03:34:11;21.30;;;14.27;;
4434;SDS011;46552;52.150;8.428;2023-07-30T03:36:38;22.80;;;13.33;;
4434;SDS011;46552;52.150;8.428;2023-07-30T03:39:07;22.23;;;12.10;;
4434;SDS011;46552;52.150;8.428;2023-07-30T03:41:35;19.83;;;11.17;;
4434;SDS011;46552;52.150;8.428;2023-07-30T03:44:02;17.07;;;10.03;;
4434;SDS011;46552;52.150;8.428;2023-07-30T03:46:30;14.90;;;9.90;;
4434;SDS011;46552;52.150;8.428;2023-07-30T03:48:58;24.47;;;9.47;;
4434;SDS011;46552;52.150;8.428;2023-07-30T03:51:26;19.03;;;8.53;;
4434;SDS011;46552;52.150;8.428;2023-07-30T03:53:54;13.27;;;8.37;;
4434;SDS011;46552;52.150;8.428;2023-07-30T03:56:27;15.60;;;8.40;;
4434;SDS011;46552;52.150;8.428;2023-07-30T03:58:54;16.50;;;8.00;;
4434;SDS011;46552;52.150;8.428;2023-07-30T04:01:22;16.90;;;6.37;;
4434;SDS011;46552;52.150;8.428;2023-07-30T04:03:49;15.70;;;7.03;;
4434;SDS011;46552;52.150;8.428;2023-07-30T04:06:16;16.03;;;8.10;;
4434;SDS011;46552;52.150;8.428;2023-07-30T04:08:44;15.37;;;6.37;;
4434;SDS011;46552;52.150;8.428;2023-07-30T04:11:12;13.13;;;7.13;;
4434;SDS011;46552;52.150;8.428;2023-07-30T04:13:41;14.40;;;6.20;;
4434;SDS011;46552;52.150;8.428;2023-07-30T04:16:08;11.63;;;5.30;;
4434;SDS011;46552;52.150;8.428;2023-07-30T04:18:36;13.40;;;6.47;;
4434;SDS011;46552;52.150;8.428;2023-07-30T04:21:03;16.73;;;5.67;;
4434;SDS011;46552;52.150;8.428;2023-07-30T04:23:30;10.67;;;4.33;;
4434;SDS011;46552;52.150;8.428;2023-07-30T04:25:58;10.60;;;5.30;;
4434;SDS011;46552;52.150;8.428;2023-07-30T04:28:25;13.20;;;4.80;;
4434;SDS011;46552;52.150;8.428;2023-07-30T04:30:54;12.50;;;4.80;;
4434;SDS011;46552;52.150;8.428;2023-07-30T04:33:23;8.23;;;4.97;;
4434;SDS011;46552;52.150;8.428;2023-07-30T04:35:51;12.57;;;5.07;;
4434;SDS011;46552;52.150;8.428;2023-07-30T04:38:19;16.57;;;5.70;;
4434;SDS011;46552;52.150;8.428;2023-07-30T04:40:46;20.40;;;6.43;;
4434;SDS011;46552;52.150;8.428;2023-07-30T04:43:13;10.57;;;5.27;;
4434;SDS011;46552;52.150;8.428;2023-07-30T04:45:41;16.80;;;5.10;;
4434;SDS011;46552;52.150;8.428;2023-07-30T04:48:11;10.13;;;4.80;;
4434;SDS011;46552;52.150;8.428;2023-07-30T04:50:38;20.47;;;6.23;;
4434;SDS011;46552;52.150;8.428;2023-07-30T04:53:07;16.43;;;5.10;;
4434;SDS011;46552;52.150;8.428;2023-07-30T04:55:34;15.20;;;5.53;;
4434;SDS011;46552;52.150;8.428;2023-07-30T04:58:02;13.70;;;4.20;;
4434;SDS011;46552;52.150;8.428;2023-07-30T05:00:30;14.43;;;4.67;;
4434;SDS011;46552;52.150;8.428;2023-07-30T05:02:57;13.13;;;4.53;;
4434;SDS011;46552;52.150;8.428;2023-07-30T05:05:26;12.97;;;4.17;;
4434;SDS011;46552;52.150;8.428;2023-07-30T05:07:53;21.13;;;4.40;;
4434;SDS011;46552;52.150;8.428;2023-07-30T05:10:21;13.80;;;5.10;;
4434;SDS011;46552;52.150;8.428;2023-07-30T05:12:48;16.70;;;4.93;;
4434;SDS011;46552;52.150;8.428;2023-07-30T05:15:15;12.73;;;4.50;;
4434;SDS011;46552;52.150;8.428;2023-07-30T05:17:42;9.70;;;4.00;;
4434;SDS011;46552;52.150;8.428;2023-07-30T05:20:10;15.90;;;4.67;;
4434;SDS011;46552;52.150;8.428;2023-07-30T05:22:39;10.47;;;4.10;;
4434;SDS011;46552;52.150;8.428;2023-07-30T05:25:06;14.33;;;3.70;;
4434;SDS011;46552;52.150;8.428;2023-07-30T05:27:34;9.40;;;4.50;;
4434;SDS011;46552;52.150;8.428;2023-07-30T05:30:02;17.80;;;4.63;;
4434;SDS011;46552;52.150;8.428;2023-07-30T05:32:29;11.43;;;4.17;;
4434;SDS011;46552;52.150;8.428;2023-07-30T05:34:56;12.93;;;4.63;;
4434;SDS011;46552;52.150;8.428;2023-07-30T05:37:23;13.43;;;4.00;;
4434;SDS011;46552;52.150;8.428;2023-07-30T05:39:52;8.80;;;4.20;;
4434;SDS011;46552;52.150;8.428;2023-07-30T05:42:19;8.47;;;3.30;;
4434;SDS011;46552;52.150;8.428;2023-07-30T05:44:46;9.30;;;3.77;;
4434;SDS011;46552;52.150;8.428;2023-07-30T05:47:14;14.50;;;4.57;;
4434;SDS011;46552;52.150;8.428;2023-07-30T05:49:41;11.60;;;4.33;;
4434;SDS011;46552;52.150;8.428;2023-07-30T05:52:08;13.07;;;4.00;;
4434;SDS011;46552;52.150;8.428;2023-07-30T05:54:36;8.77;;;3.80;;
4434;SDS011;46552;52.150;8.428;2023-07-30T05:57:04;21.20;;;4.40;;
4434;SDS011;46552;52.150;8.428;2023-07-30T05:59:32;12.73;;;4.20;;
4434;SDS011;46552;52.150;8.428;2023-07-30T06:02:01;11.53;;;4.13;;
4434;SDS011;46552;52.150;8.428;2023-07-30T06:04:29;13.27;;;5.20;;
4434;SDS011;46552;52.150;8.428;2023-07-30T06:06:57;15.23;;;4.50;;
4434;SDS011;46552;52.150;8.428;2023-07-30T06:09:25;12.77;;;4.00;;
4434;SDS011;46552;52.150;8.428;2023-07-30T06:11:53;14.07;;;4.73;;
4434;SDS011;46552;52.150;8.428;2023-07-30T06:14:21;14.87;;;4.80;;
4434;SDS011;46552;52.150;8.428;2023-07-30T06:16:49;13.93;;;4.60;;
4434;SDS011;46552;52.150;8.428;2023-07-30T06:19:17;11.27;;;4.17;;
4434;SDS011;46552;52.150;8.428;2023-07-30T06:21:44;17.07;;;5.40;;
4434;SDS011;46552;52.150;8.428;2023-07-30T06:24:11;13.70;;;5.57;;
4434;SDS011;46552;52.150;8.428;2023-07-30T06:26:38;16.87;;;6.90;;
4434;SDS011;46552;52.150;8.428;2023-07-30T06:29:06;13.00;;;7.10;;
4434;SDS011;46552;52.150;8.428;2023-07-30T06:31:34;15.53;;;7.80;;
4434;SDS011;46552;52.150;8.428;2023-07-30T06:34:02;17.47;;;7.87;;
4434;SDS011;46552;52.150;8.428;2023-07-30T06:36:29;17.93;;;8.20;;
4434;SDS011;46552;52.150;8.428;2023-07-30T06:38:57;16.20;;;9.13;;
4434;SDS011;46552;52.150;8.428;2023-07-30T06:41:24;17.00;;;8.93;;
4434;SDS011;46552;52.150;8.428;2023-07-30T06:43:51;21.73;;;7.30;;
4434;SDS011;46552;52.150;8.428;2023-07-30T06:46:19;20.10;;;7.73;;
4434;SDS011;46552;52.150;8.428;2023-07-30T06:48:48;16.33;;;7.90;;
4434;SDS011;46552;52.150;8.428;2023-07-30T06:51:18;23.00;;;8.20;;
4434;SDS011;46552;52.150;8.428;2023-07-30T06:53:45;23.50;;;8.33;;
4434;SDS011;46552;52.150;8.428;2023-07-30T06:56:13;26.73;;;8.40;;
4434;SDS011;46552;52.150;8.428;2023-07-30T06:58:42;28.93;;;8.67;;
4434;SDS011;46552;52.150;8.428;2023-07-30T07:01:09;19.60;;;9.07;;
4434;SDS011;46552;52.150;8.428;2023-07-30T07:03:37;23.40;;;9.00;;
4434;SDS011;46552;52.150;8.428;2023-07-30T07:06:06;26.43;;;9.73;;
4434;SDS011;46552;52.150;8.428;2023-07-30T07:08:33;19.27;;;7.67;;
4434;SDS011;46552;52.150;8.428;2023-07-30T07:11:00;21.80;;;8.13;;
4434;SDS011;46552;52.150;8.428;2023-07-30T07:13:28;16.03;;;8.13;;
4434;SDS011;46552;52.150;8.428;2023-07-30T07:15:55;19.17;;;7.90;;
4434;SDS011;46552;52.150;8.428;2023-07-30T07:18:22;17.07;;;7.60;;
4434;SDS011;46552;52.150;8.428;2023-07-30T07:20:49;18.43;;;7.60;;
4434;SDS011;46552;52.150;8.428;2023-07-30T07:23:18;29.57;;;8.77;;
4434;SDS011;46552;52.150;8.428;2023-07-30T07:25:45;20.83;;;9.53;;
4434;SDS011;46552;52.150;8.428;2023-07-30T07:28:12;16.80;;;7.60;;
4434;SDS011;46552;52.150;8.428;2023-07-30T07:30:40;23.90;;;9.33;;
4434;SDS011;46552;52.150;8.428;2023-07-30T07:33:07;24.40;;;10.80;;
4434;SDS011;46552;52.150;8.428;2023-07-30T07:35:37;28.40;;;9.87;;
4434;SDS011;46552;52.150;8.428;2023-07-30T07:38:05;19.73;;;9.53;;
4434;SDS011;46552;52.150;8.428;2023-07-30T07:40:36;21.23;;;11.10;;
4434;SDS011;46552;52.150;8.428;2023-07-30T07:43:05;27.53;;;10.43;;
4434;SDS011;46552;52.150;8.428;2023-07-30T07:45:32;21.10;;;10.30;;
4434;SDS011;46552;52.150;8.428;2023-07-30T07:48:00;24.00;;;12.30;;
4434;SDS011;46552;52.150;8.428;2023-07-30T07:50:27;27.70;;;12.40;;
4434;SDS011;46552;52.150;8.428;2023-07-30T07:52:54;20.37;;;11.70;;
4434;SDS011;46552;52.150;8.428;2023-07-30T07:55:21;19.53;;;10.70;;
4434;SDS011;46552;52.150;8.428;2023-07-30T07:57:50;22.13;;;12.37;;
4434;SDS011;46552;52.150;8.428;2023-07-30T08:00:18;23.90;;;12.90;;
4434;SDS011;46552;52.150;8.428;2023-07-30T08:02:46;25.50;;;14.80;;
4434;SDS011;46552;52.150;8.428;2023-07-30T08:05:13;34.10;;;13.73;;
4434;SDS011;46552;52.150;8.428;2023-07-30T08:07:41;23.13;;;14.17;;
4434;SDS011;46552;52.150;8.428;2023-07-30T08:10:08;36.70;;;15.03;;
4434;SDS011;46552;52.150;8.428;2023-07-30T08:12:36;36.00;;;15.10;;
4434;SDS011;46552;52.150;8.428;2023-07-30T08:15:07;30.53;;;14.30;;
4434;SDS011;46552;52.150;8.428;2023-07-30T08:17:35;32.17;;;17.27;;
4434;SDS011;46552;52.150;8.428;2023-07-30T08:20:03;28.00;;;16.30;;
4434;SDS011;46552;52.150;8.428;2023-07-30T08:22:32;28.53;;;13.53;;
4434;SDS011;46552;52.150;8.428;2023-07-30T08:25:01;25.87;;;13.20;;
4434;SDS011;46552;52.150;8.428;2023-07-30T08:27:28;24.40;;;15.07;;
4434;SDS011;46552;52.150;8.428;2023-07-30T08:29:56;25.47;;;13.90;;
4434;SDS011;46552;52.150;8.428;2023-07-30T08:32:26;25.33;;;12.73;;
4434;SDS011;46552;52.150;8.428;2023-07-30T08:34:53;27.03;;;13.70;;
4434;SDS011;46552;52.150;8.428;2023-07-30T08:37:20;26.97;;;14.13;;
4434;SDS011;46552;52.150;8.428;2023-07-30T08:39:48;25.67;;;12.90;;
4434;SDS011;46552;52.150;8.428;2023-07-30T08:42:16;35.23;;;15.07;;
4434;SDS011;46552;52.150;8.428;2023-07-30T08:44:43;32.87;;;13.07;;
4434;SDS011;46552;52.150;8.428;2023-07-30T08:47:11;25.50;;;12.47;;
4434;SDS011;46552;52.150;8.428;2023-07-30T08:49:39;30.43;;;13.30;;
4434;SDS011;46552;52.150;8.428;2023-07-30T08:52:07;23.73;;;12.97;;
4434;SDS011;46552;52.150;8.428;2023-07-30T08:54:36;35.90;;;15.00;;
4434;SDS011;46552;52.150;8.428;2023-07-30T08:57:05;24.13;;;12.50;;
4434;SDS011;46552;52.150;8.428;2023-07-30T08:59:37;36.57;;;14.77;;
4434;SDS011;46552;52.150;8.428;2023-07-30T09:02:18;39.53;;;17.03;;
4434;SDS011;46552;52.150;8.428;2023-07-30T09:04:53;32.63;;;16.43;;
4434;SDS011;46552;52.150;8.428;2023-07-30T09:07:24;27.80;;;14.33;;
4434;SDS011;46552;52.150;8.428;2023-07-30T09:09:52;33.30;;;13.93;;
4434;SDS011;46552;52.150;8.428;2023-07-30T09:12:19;25.57;;;12.53;;
4434;SDS011;46552;52.150;8.428;2023-07-30T09:14:46;36.83;;;15.87;;
4434;SDS011;46552;52.150;8.428;2023-07-30T09:17:18;24.60;;;12.57;;
4434;SDS011;46552;52.150;8.428;2023-07-30T09:19:46;23.33;;;12.90;;
4434;SDS011;46552;52.150;8.428;2023-07-30T09:22:23;22.07;;;11.17;;
4434;SDS011;46552;52.150;8.428;2023-07-30T09:24:52;26.27;;;11.83;;
4434;SDS011;46552;52.150;8.428;2023-07-30T09:27:20;24.77;;;10.63;;
4434;SDS011;46552;52.150;8.428;2023-07-30T09:29:50;21.83;;;11.17;;
4434;SDS011;46552;52.150;8.428;2023-07-30T09:32:18;40.97;;;12.90;;
4434;SDS011;46552;52.150;8.428;2023-07-30T09:34:46;32.07;;;11.00;;
4434;SDS011;46552;52.150;8.428;2023-07-30T09:37:14;27.77;;;11.10;;
4434;SDS011;46552;52.150;8.428;2023-07-30T09:39:43;29.50;;;11.23;;
4434;SDS011;46552;52.150;8.428;2023-07-30T09:42:10;31.03;;;10.97;;
4434;SDS011;46552;52.150;8.428;2023-07-30T09:44:37;26.30;;;10.90;;
4434;SDS011;46552;52.150;8.428;2023-07-30T09:47:08;17.93;;;10.60;;
4434;SDS011;46552;52.150;8.428;2023-07-30T09:49:36;28.27;;;13.37;;
4434;SDS011;46552;52.150;8.428;2023-07-30T09:52:04;24.47;;;9.90;;
4434;SDS011;46552;52.150;8.428;2023-07-30T09:54:32;20.40;;;8.80;;
4434;SDS011;46552;52.150;8.428;2023-07-30T09:57:01;22.97;;;9.70;;
4434;SDS011;46552;52.150;8.428;2023-07-30T09:59:29;22.87;;;10.57;;
4434;SDS011;46552;52.150;8.428;2023-07-30T10:01:56;22.23;;;10.10;;
4434;SDS011;46552;52.150;8.428;2023-07-30T10:04:24;17.17;;;10.50;;
4434;SDS011;46552;52.150;8.428;2023-07-30T10:06:55;24.97;;;11.27;;
4434;SDS011;46552;52.150;8.428;2023-07-30T10:09:25;24.00;;;12.07;;
4434;SDS011;46552;52.150;8.428;2023-07-30T10:11:55;30.27;;;12.20;;
4434;SDS011;46552;52.150;8.428;2023-07-30T10:14:23;24.00;;;10.60;;
4434;SDS011;46552;52.150;8.428;2023-07-30T10:16:52;21.60;;;10.23;;
4434;SDS011;46552;52.150;8.428;2023-07-30T10:19:22;25.93;;;10.37;;
4434;SDS011;46552;52.150;8.428;2023-07-30T10:21:50;25.97;;;11.20;;
4434;SDS011;46552;52.150;8.428;2023-07-30T10:24:17;28.50;;;10.13;;
4434;SDS011;46552;52.150;8.428;2023-07-30T10:26:44;19.73;;;9.77;;
4434;SDS011;46552;52.150;8.428;2023-07-30T10:29:12;33.43;;;11.70;;
4434;SDS011;46552;52.150;8.428;2023-07-30T10:31:42;17.80;;;8.03;;
4434;SDS011;46552;52.150;8.428;2023-07-30T10:34:13;23.87;;;8.40;;
4434;SDS011;46552;52.150;8.428;2023-07-30T10:36:42;21.00;;;8.87;;
4434;SDS011;46552;52.150;8.428;2023-07-30T10:39:14;21.30;;;9.13;;
4434;SDS011;46552;52.150;8.428;2023-07-30T10:41:44;13.80;;;7.93;;
4434;SDS011;46552;52.150;8.428;2023-07-30T10:44:24;22.13;;;9.57;;
4434;SDS011;46552;52.150;8.428;2023-07-30T10:46:54;25.67;;;12.60;;
4434;SDS011;46552;52.150;8.428;2023-07-30T10:49:22;27.83;;;14.07;;
4434;SDS011;46552;52.150;8.428;2023-07-30T10:51:50;24.60;;;13.83;;
4434;SDS011;46552;52.150;8.428;2023-07-30T10:54:19;20.93;;;12.33;;
4434;SDS011;46552;52.150;8.428;2023-07-30T10:56:46;27.97;;;12.70;;
4434;SDS011;46552;52.150;8.428;2023-07-30T10:59:13;18.00;;;12.67;;
4434;SDS011;46552;52.150;8.428;2023-07-30T11:01:42;18.53;;;11.00;;
4434;SDS011;46552;52.150;8.428;2023-07-30T11:04:14;22.80;;;10.60;;
4434;SDS011;46552;52.150;8.428;2023-07-30T11:06:44;22.13;;;11.50;;
4434;SDS011;46552;52.150;8.428;2023-07-30T11:09:23;16.30;;;10.03;;
4434;SDS011;46552;52.150;8.428;2023-07-30T11:11:53;18.13;;;9.20;;
4434;SDS011;46552;52.150;8.428;2023-07-30T11:14:22;14.73;;;7.00;;
4434;SDS011;46552;52.150;8.428;2023-07-30T11:16:53;16.53;;;9.27;;
4434;SDS011;46552;52.150;8.428;2023-07-30T11:19:24;18.90;;;9.30;;
4434;SDS011;46552;52.150;8.428;2023-07-30T11:21:53;13.73;;;7.07;;
4434;SDS011;46552;52.150;8.428;2023-07-30T11:24:21;23.97;;;7.67;;
4434;SDS011;46552;52.150;8.428;2023-07-30T11:26:56;20.63;;;8.20;;
4434;SDS011;46552;52.150;8.428;2023-07-30T11:29:24;11.67;;;6.70;;
4434;SDS011;46552;52.150;8.428;2023-07-30T11:31:51;15.50;;;6.83;;
4434;SDS011;46552;52.150;8.428;2023-07-30T11:34:22;10.57;;;5.73;;
4434;SDS011;46552;52.150;8.428;2023-07-30T11:36:53;13.77;;;7.00;;
4434;SDS011;46552;52.150;8.428;2023-07-30T11:39:21;15.60;;;5.27;;
4434;SDS011;46552;52.150;8.428;2023-07-30T11:41:50;11.77;;;4.73;;
4434;SDS011;46552;52.150;8.428;2023-07-30T11:44:30;14.43;;;4.40;;
4434;SDS011;46552;52.150;8.428;2023-07-30T11:46:58;8.40;;;5.40;;
4434;SDS011;46552;52.150;8.428;2023-07-30T11:49:27;10.37;;;4.77;;
4434;SDS011;46552;52.150;8.428;2023-07-30T11:52:03;10.47;;;4.77;;
4434;SDS011;46552;52.150;8.428;2023-07-30T11:54:32;8.93;;;5.40;;
4434;SDS011;46552;52.150;8.428;2023-07-30T11:56:59;11.73;;;4.93;;
4434;SDS011;46552;52.150;8.428;2023-07-30T11:59:27;15.37;;;5.47;;
4434;SDS011;46552;52.150;8.428;2023-07-30T12:01:54;16.63;;;5.60;;
4434;SDS011;46552;52.150;8.428;2023-07-30T12:04:21;11.83;;;5.57;;
4434;SDS011;46552;52.150;8.428;2023-07-30T12:06:52;11.17;;;5.17;;
4434;SDS011;46552;52.150;8.428;2023-07-30T12:09:20;10.17;;;4.47;;
4434;SDS011;46552;52.150;8.428;2023-07-30T12:11:49;8.63;;;4.30;;
4434;SDS011;46552;52.150;8.428;2023-07-30T12:14:17;15.23;;;4.00;;
4434;SDS011;46552;52.150;8.428;2023-07-30T12:16:45;9.47;;;4.17;;
4434;SDS011;46552;52.150;8.428;2023-07-30T12:19:12;13.00;;;4.27;;
4434;SDS011;46552;52.150;8.428;2023-07-30T12:21:40;9.53;;;4.00;;
4434;SDS011;46552;52.150;8.428;2023-07-30T12:24:08;7.67;;;3.83;;
4434;SDS011;46552;52.150;8.428;2023-07-30T12:26:35;8.77;;;3.47;;
4434;SDS011;46552;52.150;8.428;2023-07-30T12:29:02;9.90;;;3.80;;
4434;SDS011;46552;52.150;8.428;2023-07-30T12:31:30;8.20;;;2.87;;
4434;SDS011;46552;52.150;8.428;2023-07-30T12:33:57;13.20;;;2.93;;
4434;SDS011;46552;52.150;8.428;2023-07-30T12:36:24;11.67;;;3.10;;
4434;SDS011;46552;52.150;8.428;2023-07-30T12:38:52;7.07;;;2.63;;
4434;SDS011;46552;52.150;8.428;2023-07-30T12:41:21;20.20;;;3.07;;
4434;SDS011;46552;52.150;8.428;2023-07-30T12:43:51;9.03;;;2.70;;
4434;SDS011;46552;52.150;8.428;2023-07-30T12:46:18;12.83;;;2.10;;
4434;SDS011;46552;52.150;8.428;2023-07-30T12:48:46;12.27;;;2.07;;
4434;SDS011;46552;52.150;8.428;2023-07-30T12:51:14;5.40;;;2.10;;
4434;SDS011;46552;52.150;8.428;2023-07-30T12:53:43;5.53;;;2.00;;
4434;SDS011;46552;52.150;8.428;2023-07-30T12:56:10;10.70;;;2.00;;
4434;SDS011;46552;52.150;8.428;2023-07-30T12:58:38;8.30;;;2.10;;
4434;SDS011;46552;52.150;8.428;2023-07-30T13:01:06;5.13;;;1.70;;
4434;SDS011;46552;52.150;8.428;2023-07-30T13:03:33;10.23;;;1.83;;
4434;SDS011;46552;52.150;8.428;2023-07-30T13:06:01;8.03;;;2.20;;
4434;SDS011;46552;52.150;8.428;2023-07-30T13:08:28;9.10;;;2.20;;
4434;SDS011;46552;52.150;8.428;2023-07-30T13:10:55;7.50;;;1.87;;
4434;SDS011;46552;52.150;8.428;2023-07-30T13:13:22;14.40;;;2.70;;
4434;SDS011;46552;52.150;8.428;2023-07-30T13:15:51;5.53;;;1.77;;
4434;SDS011;46552;52.150;8.428;2023-07-30T13:18:23;16.33;;;2.87;;
4434;SDS011;46552;52.150;8.428;2023-07-30T13:20:50;6.13;;;2.40;;
4434;SDS011;46552;52.150;8.428;2023-07-30T13:23:17;11.50;;;2.73;;
4434;SDS011;46552;52.150;8.428;2023-07-30T13:25:45;14.10;;;2.40;;
4434;SDS011;46552;52.150;8.428;2023-07-30T13:28:12;7.03;;;2.90;;
4434;SDS011;46552;52.150;8.428;2023-07-30T13:30:40;8.90;;;2.73;;
4434;SDS011;46552;52.150;8.428;2023-07-30T13:33:09;6.90;;;2.57;;
4434;SDS011;46552;52.150;8.428;2023-07-30T13:35:36;6.97;;;2.17;;
4434;SDS011;46552;52.150;8.428;2023-07-30T13:38:03;11.40;;;3.60;;
4434;SDS011;46552;52.150;8.428;2023-07-30T13:40:31;12.80;;;3.03;;
4434;SDS011;46552;52.150;8.428;2023-07-30T13:42:58;7.03;;;2.67;;
4434;SDS011;46552;52.150;8.428;2023-07-30T13:45:25;5.97;;;2.10;;
4434;SDS011;46552;52.150;8.428;2023-07-30T13:47:53;14.10;;;3.53;;
4434;SDS011;46552;52.150;8.428;2023-07-30T13:50:22;7.63;;;2.60;;
4434;SDS011;46552;52.150;8.428;2023-07-30T13:52:49;7.03;;;2.13;;
4434;SDS011;46552;52.150;8.428;2023-07-30T13:55:16;16.53;;;2.67;;
4434;SDS011;46552;52.150;8.428;2023-07-30T13:57:45;7.60;;;2.03;;
4434;SDS011;46552;52.150;8.428;2023-07-30T14:00:12;8.63;;;1.60;;
4434;SDS011;46552;52.150;8.428;2023-07-30T14:02:40;4.33;;;1.30;;
4434;SDS011;46552;52.150;8.428;2023-07-30T14:05:08;2.93;;;1.67;;
4434;SDS011;46552;52.150;8.428;2023-07-30T14:07:37;2.90;;;1.17;;
4434;SDS011;46552;52.150;8.428;2023-07-30T14:10:05;6.50;;;1.33;;
4434;SDS011;46552;52.150;8.428;2023-07-30T14:12:33;4.87;;;1.40;;
4434;SDS011;46552;52.150;8.428;2023-07-30T14:15:01;7.30;;;1.80;;
4434;SDS011;46552;52.150;8.428;2023-07-30T14:17:28;5.00;;;1.73;;
4434;SDS011;46552;52.150;8.428;2023-07-30T14:19:55;2.67;;;1.10;;
4434;SDS011;46552;52.150;8.428;2023-07-30T14:22:23;9.20;;;1.70;;
4434;SDS011;46552;52.150;8.428;2023-07-30T14:24:52;11.93;;;1.60;;
4434;SDS011;46552;52.150;8.428;2023-07-30T14:27:19;3.27;;;1.33;;
4434;SDS011;46552;52.150;8.428;2023-07-30T14:29:46;6.10;;;1.80;;
4434;SDS011;46552;52.150;8.428;2023-07-30T14:32:14;6.53;;;1.50;;
4434;SDS011;46552;52.150;8.428;2023-07-30T14:34:42;9.83;;;1.50;;
4434;SDS011;46552;52.150;8.428;2023-07-30T14:37:09;4.90;;;1.50;;
4434;SDS011;46552;52.150;8.428;2023-07-30T14:39:37;4.60;;;1.90;;
4434;SDS011;46552;52.150;8.428;2023-07-30T14:42:07;8.77;;;1.60;;
4434;SDS011;46552;52.150;8.428;2023-07-30T14:44:34;5.93;;;1.90;;
4434;SDS011;46552;52.150;8.428;2023-07-30T14:47:01;8.50;;;2.27;;
4434;SDS011;46552;52.150;8.428;2023-07-30T14:49:30;9.93;;;2.43;;
4434;SDS011;46552;52.150;8.428;2023-07-30T14:51:57;5.63;;;2.20;;